createdAt,value
2023-05-24T00:01:07.717Z,44.34
2023-05-24T00:03:39.518Z,44.28
2023-05-24T00:06:10.409Z,44.42
2023-05-24T00:08:41.092Z,44.40
2023-05-24T00:11:12.212Z,44.66
2023-05-24T00:13:42.912Z,44.71
2023-05-24T00:16:13.670Z,44.75
2023-05-24T00:18:47.208Z,44.96
2023-05-24T00:21:17.784Z,44.88
2023-05-24T00:23:48.455Z,44.93
2023-05-24T00:26:19.122Z,45.01
2023-05-24T00:28:49.847Z,45.14
2023-05-24T00:31:20.798Z,45.06
2023-05-24T00:33:51.452Z,45.30
2023-05-24T00:36:22.298Z,45.31
2023-05-24T00:38:54.076Z,45.28
2023-05-24T00:41:26.161Z,45.30
2023-05-24T00:43:56.791Z,45.49
2023-05-24T00:46:29.553Z,45.54
2023-05-24T00:49:00.374Z,45.67
2023-05-24T00:51:32.058Z,45.60
2023-05-24T00:54:02.867Z,45.64
2023-05-24T00:56:33.585Z,45.79
2023-05-24T00:59:05.196Z,45.93
2023-05-24T01:01:37.395Z,45.88
2023-05-24T01:04:08.235Z,45.95
2023-05-24T01:06:45.052Z,46.09
2023-05-24T01:09:26.175Z,46.17
2023-05-24T01:11:59.688Z,46.15
2023-05-24T01:14:31.105Z,46.23
2023-05-24T01:17:04.041Z,46.27
2023-05-24T01:19:50.679Z,46.32
2023-05-24T01:22:31.170Z,46.48
2023-05-24T01:25:04.787Z,46.46
2023-05-24T01:27:36.520Z,46.57
2023-05-24T01:30:08.012Z,46.64
2023-05-24T01:32:38.992Z,46.69
2023-05-24T01:35:10.440Z,46.73
2023-05-24T01:37:41.451Z,46.86
2023-05-24T01:40:13.193Z,46.86
2023-05-24T01:42:46.164Z,47.01
2023-05-24T01:45:19.189Z,47.07
2023-05-24T01:47:53.730Z,47.10
2023-05-24T01:50:28.216Z,47.14
2023-05-24T01:52:59.727Z,47.25
2023-05-24T01:55:31.245Z,47.29
2023-05-24T01:58:02.875Z,47.30
2023-05-24T02:00:34.219Z,47.38
2023-05-24T02:03:05.851Z,47.50
2023-05-24T02:05:38.211Z,47.48
2023-05-24T02:08:09.601Z,47.67
2023-05-24T02:10:40.593Z,47.66
2023-05-24T02:13:12.587Z,47.77
2023-05-24T02:15:44.963Z,47.80
2023-05-24T02:22:10.235Z,48.00
2023-05-24T02:24:41.610Z,47.97
2023-05-24T02:27:13.228Z,48.02
2023-05-24T02:29:44.234Z,48.15
2023-05-24T02:32:15.474Z,48.13
2023-05-24T02:34:47.242Z,48.15
2023-05-24T02:44:08.890Z,48.47
2023-05-24T02:46:39.477Z,48.67
2023-05-24T02:49:10.645Z,48.72
2023-05-24T02:51:41.399Z,48.71
2023-05-24T02:54:12.138Z,48.76
2023-05-24T02:56:42.853Z,48.87
2023-05-24T02:59:13.628Z,48.93
2023-05-24T03:01:44.373Z,48.90
2023-05-24T03:04:15.316Z,48.97
2023-05-24T03:06:46.219Z,49.05
2023-05-24T03:09:19.071Z,49.07
2023-05-24T03:11:49.863Z,49.12
2023-05-24T03:14:22.713Z,49.21
2023-05-24T03:16:53.224Z,49.32
2023-05-24T03:19:24.003Z,49.38
2023-05-24T03:21:54.862Z,49.29
2023-05-24T03:24:26.213Z,49.43
2023-05-24T03:26:57.023Z,49.48
2023-05-24T03:29:27.874Z,49.52
2023-05-24T03:31:58.521Z,49.49
2023-05-24T03:34:30.382Z,49.67
2023-05-24T03:37:01.212Z,49.59
2023-05-24T03:39:32.075Z,49.68
2023-05-24T03:42:02.830Z,49.72
2023-05-24T03:44:33.735Z,49.84
2023-05-24T03:47:04.348Z,49.91
2023-05-24T03:49:35.130Z,49.91
2023-05-24T03:52:10.379Z,49.81
2023-05-24T03:54:47.047Z,49.98
2023-05-24T03:57:18.540Z,49.88
2023-05-24T03:59:49.324Z,50.00
2023-05-24T04:02:20.403Z,49.99
2023-05-24T04:04:51.579Z,50.01
2023-05-24T04:07:34.420Z,50.12
2023-05-24T04:10:13.180Z,50.06
2023-05-24T04:12:51.644Z,50.07
2023-05-24T04:15:36.817Z,50.11
2023-05-24T04:18:09.043Z,50.05
2023-05-24T04:23:31.112Z,50.20
2023-05-24T04:26:03.039Z,50.30
2023-05-24T04:28:33.898Z,50.24
2023-05-24T04:31:06.980Z,50.30
2023-05-24T04:33:39.975Z,50.38
2023-05-24T04:36:11.906Z,50.38
2023-05-24T04:38:42.914Z,50.43
2023-05-24T04:41:15.079Z,50.38
2023-05-24T04:43:46.639Z,50.52
2023-05-24T04:46:17.824Z,50.56
2023-05-24T04:48:48.740Z,50.47
2023-05-24T04:51:20.563Z,50.44
2023-05-24T04:54:34.135Z,50.53
2023-05-24T05:00:31.628Z,50.55
2023-05-24T05:03:02.378Z,50.52
2023-05-24T05:05:33.353Z,50.62
2023-05-24T05:08:04.315Z,50.67
2023-05-24T05:10:35.232Z,50.73
2023-05-24T05:13:06.052Z,50.65
2023-05-24T05:15:37.105Z,50.70
2023-05-24T05:18:08.000Z,50.59
2023-05-24T05:21:03.538Z,50.67
2023-05-24T05:23:36.548Z,50.56
2023-05-24T05:26:08.090Z,50.66
2023-05-24T05:29:13.249Z,50.63
2023-05-24T05:31:48.034Z,50.61
2023-05-24T05:34:57.090Z,50.58
2023-05-24T05:37:46.368Z,50.59
2023-05-24T05:40:17.408Z,50.45
2023-05-24T05:42:50.229Z,50.51
2023-05-24T05:45:21.271Z,50.49
2023-05-24T05:47:52.652Z,50.36
2023-05-24T05:50:23.712Z,50.44
2023-05-24T05:53:12.723Z,50.53
2023-05-24T05:55:47.672Z,50.29
2023-05-24T05:58:20.903Z,50.25
2023-05-24T06:01:05.834Z,50.19
2023-05-24T06:03:36.900Z,50.10
2023-05-24T06:06:08.654Z,50.03
2023-05-24T06:08:51.331Z,49.83
2023-05-24T06:11:22.482Z,49.90
2023-05-24T06:16:57.350Z,49.70
2023-05-24T06:19:35.179Z,49.59
2023-05-24T06:22:05.892Z,49.34
2023-05-24T06:24:40.081Z,49.41
2023-05-24T06:27:10.785Z,49.32
2023-05-24T06:29:44.084Z,49.18
2023-05-24T06:32:16.449Z,49.19
2023-05-24T06:34:48.392Z,49.27
2023-05-24T06:37:19.335Z,49.07
2023-05-24T06:39:50.078Z,49.04
2023-05-24T06:42:21.060Z,49.02
2023-05-24T06:44:52.084Z,48.76
2023-05-24T06:47:24.125Z,48.75
2023-05-24T06:49:57.242Z,48.84
2023-05-24T06:52:29.945Z,48.58
2023-05-24T06:55:01.545Z,48.46
2023-05-24T06:57:33.352Z,48.20
2023-05-24T07:00:23.662Z,48.27
2023-05-24T07:06:09.673Z,47.80
2023-05-24T07:08:55.687Z,47.57
2023-05-24T07:15:08.345Z,47.24
2023-05-24T07:21:23.757Z,46.96
2023-05-24T07:24:06.190Z,46.66
2023-05-24T07:26:51.225Z,46.43
2023-05-24T07:29:37.207Z,46.37
2023-05-24T07:35:09.100Z,45.65
2023-05-24T07:37:40.850Z,45.37
2023-05-24T07:40:12.642Z,45.27
2023-05-24T07:42:43.720Z,45.23
2023-05-24T07:45:16.987Z,44.88
2023-05-24T07:47:56.570Z,44.46
2023-05-24T07:53:48.328Z,43.86
2023-05-24T07:56:22.217Z,43.78
2023-05-24T07:58:56.954Z,43.76
2023-05-24T08:01:29.214Z,43.47
2023-05-24T08:04:06.217Z,43.33
2023-05-24T08:07:04.013Z,42.97
2023-05-24T08:09:52.939Z,42.64
2023-05-24T08:12:32.368Z,42.65
2023-05-24T08:15:04.368Z,42.49
2023-05-24T08:17:36.301Z,42.26
2023-05-24T08:20:14.977Z,42.11
2023-05-24T08:22:48.752Z,41.68
2023-05-24T08:25:20.397Z,41.72
2023-05-24T08:27:52.340Z,41.52
2023-05-24T08:30:25.128Z,41.44
2023-05-24T08:33:12.556Z,41.55
2023-05-24T08:35:46.800Z,41.09
2023-05-24T08:38:18.003Z,40.89
2023-05-24T08:40:50.474Z,40.54
2023-05-24T08:43:21.211Z,40.30
2023-05-24T08:45:52.154Z,40.44
2023-05-24T08:48:23.058Z,40.45
2023-05-24T08:50:54.107Z,40.21
2023-05-24T08:53:25.024Z,39.94
2023-05-24T08:55:57.683Z,39.60
2023-05-24T08:58:28.303Z,39.40
2023-05-24T09:00:59.172Z,39.25
2023-05-24T09:03:29.896Z,38.89
2023-05-24T09:06:01.290Z,38.55
2023-05-24T09:08:35.198Z,38.15
2023-05-24T09:11:09.747Z,37.69
2023-05-24T09:13:41.115Z,37.45
2023-05-24T09:16:11.983Z,37.18
2023-05-24T09:18:43.075Z,37.24
2023-05-24T09:21:14.097Z,37.01
2023-05-24T09:23:44.816Z,36.74
2023-05-24T09:26:15.967Z,36.51
2023-05-24T09:28:47.974Z,36.04
2023-05-24T09:31:18.823Z,36.15
2023-05-24T09:33:51.901Z,36.15
2023-05-24T09:36:22.928Z,35.63
2023-05-24T09:39:05.725Z,35.20
2023-05-24T09:41:42.516Z,34.61
2023-05-24T09:44:28.492Z,34.44
2023-05-24T09:49:59.857Z,34.34
2023-05-24T10:05:24.583Z,33.67
2023-05-24T10:07:55.293Z,33.70
2023-05-24T10:10:28.175Z,33.19
2023-05-24T10:12:58.991Z,33.08
2023-05-24T10:15:31.758Z,33.17
2023-05-24T10:18:10.695Z,32.95
2023-05-24T10:20:44.463Z,32.78
2023-05-24T10:23:17.672Z,32.44
2023-05-24T10:25:55.875Z,32.26
2023-05-24T10:28:26.920Z,31.74
2023-05-24T10:31:02.234Z,31.49
2023-05-24T10:33:33.789Z,31.33
2023-05-24T10:36:06.567Z,31.03
2023-05-24T10:38:41.935Z,30.78
2023-05-24T10:41:15.956Z,30.73
2023-05-24T10:44:00.734Z,30.36
2023-05-24T10:46:38.532Z,30.61
2023-05-24T10:49:09.469Z,30.37
2023-05-24T10:51:41.346Z,30.22
2023-05-24T10:54:19.366Z,29.90
2023-05-24T10:56:50.760Z,29.62
2023-05-24T10:59:29.719Z,29.63
2023-05-24T11:02:03.206Z,29.24
2023-05-24T11:04:35.964Z,29.24
2023-05-24T11:07:09.864Z,29.02
2023-05-24T11:09:46.546Z,28.85
2023-05-24T11:12:20.785Z,28.61
2023-05-24T11:14:52.562Z,28.31
2023-05-24T11:17:24.392Z,28.11
2023-05-24T11:19:55.725Z,27.78
2023-05-24T11:22:27.036Z,27.75
2023-05-24T11:25:12.939Z,27.35
2023-05-24T11:27:45.559Z,27.45
2023-05-24T11:30:16.980Z,27.13
2023-05-24T11:32:50.466Z,26.37
2023-05-24T11:35:23.326Z,26.66
2023-05-24T11:37:56.583Z,26.63
2023-05-24T11:40:27.407Z,26.28
2023-05-24T11:42:58.345Z,26.14
2023-05-24T11:45:31.262Z,26.02
2023-05-24T11:48:05.133Z,26.19
2023-05-24T11:50:48.712Z,25.83
2023-05-24T11:53:21.714Z,25.62
2023-05-24T11:55:52.806Z,25.69
2023-05-24T11:58:25.033Z,25.33
2023-05-24T12:00:55.937Z,25.19
2023-05-24T12:03:27.143Z,24.98
2023-05-24T12:06:00.022Z,24.98
2023-05-24T12:08:30.974Z,24.82
2023-05-24T12:11:03.043Z,24.79
2023-05-24T12:13:35.069Z,24.84
2023-05-24T12:16:06.507Z,24.70
2023-05-24T12:18:39.944Z,24.84
2023-05-24T12:21:14.989Z,24.63
2023-05-24T12:23:46.417Z,24.24
2023-05-24T12:26:20.740Z,24.12
2023-05-24T12:28:57.174Z,23.97
2023-05-24T12:37:35.011Z,23.32
2023-05-24T12:40:17.605Z,23.23
2023-05-24T12:42:51.687Z,22.97
2023-05-24T12:45:25.917Z,22.87
2023-05-24T12:47:57.782Z,22.88
2023-05-24T12:50:28.719Z,22.76
2023-05-24T12:52:59.614Z,22.71
2023-05-24T12:55:30.773Z,22.84
2023-05-24T12:58:09.029Z,22.59
2023-05-24T13:00:39.972Z,22.46
2023-05-24T13:03:12.331Z,22.48
2023-05-24T13:05:43.417Z,22.36
2023-05-24T13:08:14.905Z,21.99
2023-05-24T13:10:45.909Z,22.18
2023-05-24T13:13:17.062Z,22.04
2023-05-24T13:15:50.456Z,21.73
2023-05-24T13:18:21.270Z,21.88
2023-05-24T13:20:56.346Z,21.72
2023-05-24T13:23:31.438Z,21.82
2023-05-24T13:26:08.517Z,21.80
2023-05-24T13:28:58.630Z,21.85
2023-05-24T13:31:34.480Z,21.86
2023-05-24T13:34:07.503Z,21.84
2023-05-24T13:36:38.829Z,21.45
2023-05-24T13:39:16.166Z,21.93
2023-05-24T13:41:47.810Z,22.00
2023-05-24T13:44:18.887Z,22.00
2023-05-24T13:53:55.798Z,21.84
2023-05-24T13:56:24.633Z,21.64
2023-05-24T13:58:56.016Z,21.44
2023-05-24T14:01:24.505Z,21.41
2023-05-24T14:03:52.587Z,21.58
2023-05-24T14:06:25.503Z,21.61
2023-05-24T14:08:55.715Z,21.56
2023-05-24T14:11:24.306Z,21.63
2023-05-24T14:16:23.987Z,21.56
2023-05-24T14:18:53.662Z,21.40
2023-05-24T14:21:22.902Z,21.36
2023-05-24T14:23:50.983Z,21.43
2023-05-24T14:26:19.382Z,21.60
2023-05-24T14:28:47.352Z,21.34
2023-05-24T14:31:15.440Z,21.35
2023-05-24T14:33:45.908Z,21.39
2023-05-24T14:36:15.094Z,21.37
2023-05-24T14:38:44.195Z,21.24
2023-05-24T14:41:12.403Z,20.95
2023-05-24T14:43:41.417Z,20.93
2023-05-24T14:46:09.582Z,20.90
2023-05-24T14:48:40.910Z,20.95
2023-05-24T14:51:09.056Z,20.90
2023-05-24T14:53:37.295Z,20.87
2023-05-24T14:56:08.626Z,20.86
2023-05-24T14:58:36.774Z,20.71
2023-05-24T15:01:06.780Z,20.60
2023-05-24T15:03:35.384Z,20.54
2023-05-24T15:06:04.968Z,20.48
2023-05-24T15:08:34.357Z,20.41
2023-05-24T15:11:02.323Z,20.64
2023-05-24T15:13:30.608Z,20.49
2023-05-24T15:15:59.937Z,20.73
2023-05-24T15:18:30.262Z,20.70
2023-05-24T15:20:58.682Z,20.91
2023-05-24T15:23:31.854Z,20.95
2023-05-24T15:26:02.780Z,21.03
2023-05-24T15:28:31.091Z,21.20
2023-05-24T15:31:01.182Z,21.15
2023-05-24T15:33:29.207Z,21.15
2023-05-24T15:35:57.482Z,20.96
2023-05-24T15:38:25.597Z,20.88
2023-05-24T15:40:55.177Z,20.98
2023-05-24T15:43:23.157Z,21.07
2023-05-24T15:45:51.264Z,21.10
2023-05-24T15:48:19.511Z,21.10
2023-05-24T15:51:25.776Z,21.18
2023-05-24T15:53:36.268Z,21.10
2023-05-24T15:56:04.675Z,21.24
2023-05-24T15:58:32.784Z,21.25
2023-05-24T16:01:00.856Z,21.27
2023-05-24T16:10:14.448Z,21.92
2023-05-24T16:12:45.025Z,21.93
2023-05-24T16:15:16.027Z,21.90
2023-05-24T16:17:46.934Z,21.97
2023-05-24T16:20:18.034Z,22.07
2023-05-24T16:22:53.097Z,22.02
2023-05-24T16:25:24.041Z,22.16
2023-05-24T16:27:56.733Z,22.37
2023-05-24T16:30:30.069Z,22.43
2023-05-24T16:33:01.182Z,22.59
2023-05-24T16:35:33.586Z,22.95
2023-05-24T16:38:05.614Z,23.03
2023-05-24T16:40:37.714Z,23.11
2023-05-24T16:43:08.558Z,23.15
2023-05-24T16:46:01.581Z,23.47
2023-05-24T16:48:37.170Z,23.59
2023-05-24T16:51:07.950Z,23.65
2023-05-24T16:53:38.754Z,23.63
2023-05-24T16:56:09.549Z,23.87
2023-05-24T16:58:40.263Z,24.03
2023-05-24T17:01:11.321Z,24.43
2023-05-24T17:03:42.391Z,24.63
2023-05-24T17:06:13.286Z,24.45
2023-05-24T17:08:44.012Z,24.37
2023-05-24T17:11:17.084Z,24.70
2023-05-24T17:13:48.056Z,24.92
2023-05-24T17:16:19.130Z,25.06
2023-05-24T17:18:49.849Z,25.22
2023-05-24T17:21:21.301Z,25.30
2023-05-24T17:23:52.064Z,25.35
2023-05-24T17:26:23.521Z,25.50
2023-05-24T17:28:54.278Z,25.49
2023-05-24T17:31:25.230Z,25.70
2023-05-24T17:33:56.600Z,25.89
2023-05-24T17:36:27.359Z,25.95
2023-05-24T17:38:59.950Z,26.13
2023-05-24T17:41:30.954Z,26.17
2023-05-24T17:44:01.928Z,26.27
2023-05-24T17:46:36.367Z,26.45
2023-05-24T17:49:08.335Z,26.51
2023-05-24T17:51:39.411Z,26.61
2023-05-24T17:54:10.104Z,26.64
2023-05-24T17:56:41.268Z,26.82
2023-05-24T18:02:29.698Z,26.87
2023-05-24T18:05:02.783Z,26.98
2023-05-24T18:07:33.479Z,27.19
2023-05-24T18:10:04.247Z,27.11
2023-05-24T18:12:35.197Z,27.09
2023-05-24T18:15:06.863Z,27.07
2023-05-24T18:17:37.809Z,27.21
2023-05-24T18:20:09.270Z,27.47
2023-05-24T18:22:41.744Z,27.49
2023-05-24T18:25:12.571Z,27.62
2023-05-24T18:27:43.367Z,27.75
2023-05-24T18:30:14.971Z,27.88
2023-05-24T18:33:02.806Z,28.01
2023-05-24T18:35:35.883Z,28.14
2023-05-24T18:38:06.714Z,28.28
2023-05-24T18:40:37.670Z,28.38
2023-05-24T18:43:10.852Z,28.54
2023-05-24T18:45:44.666Z,28.51
2023-05-24T18:48:18.662Z,28.70
2023-05-24T18:50:50.586Z,28.70
2023-05-24T18:53:21.455Z,28.73
2023-05-24T18:55:52.139Z,28.87
2023-05-24T18:58:23.147Z,29.00
2023-05-24T19:00:54.059Z,29.09
2023-05-24T19:03:25.435Z,29.23
2023-05-24T19:05:56.313Z,29.29
2023-05-24T19:08:27.270Z,29.38
2023-05-24T19:10:58.141Z,29.48
2023-05-24T19:13:29.180Z,29.57
2023-05-24T19:16:01.841Z,29.67
2023-05-24T19:18:32.751Z,29.81
2023-05-24T19:21:03.578Z,29.87
2023-05-24T19:23:34.655Z,30.04
2023-05-24T19:26:05.620Z,30.19
2023-05-24T19:28:40.379Z,30.20
2023-05-24T19:31:16.520Z,30.29
2023-05-24T19:34:00.041Z,30.39
2023-05-24T19:36:32.978Z,30.46
2023-05-24T19:39:04.043Z,30.61
2023-05-24T19:41:34.785Z,30.71
2023-05-24T19:44:05.535Z,30.73
2023-05-24T19:46:37.169Z,30.90
2023-05-24T19:49:08.318Z,31.01
2023-05-24T19:51:39.445Z,31.10
2023-05-24T19:54:10.328Z,31.24
2023-05-24T19:56:41.392Z,31.30
2023-05-24T19:59:12.218Z,31.40
2023-05-24T20:01:42.980Z,31.51
2023-05-24T20:04:14.155Z,31.53
2023-05-24T20:06:45.218Z,31.90
2023-05-24T20:09:19.037Z,31.76
2023-05-24T20:11:49.805Z,31.94
2023-05-24T20:14:21.428Z,32.05
2023-05-24T20:16:52.380Z,32.27
2023-05-24T20:19:23.889Z,32.29
2023-05-24T20:21:54.688Z,32.35
2023-05-24T20:24:25.443Z,32.52
2023-05-24T20:26:56.198Z,32.50
2023-05-24T20:29:27.001Z,32.67
2023-05-24T20:31:57.857Z,32.58
2023-05-24T20:34:28.757Z,32.84
2023-05-24T20:36:59.376Z,32.89
2023-05-24T20:39:30.214Z,32.96
2023-05-24T20:42:00.985Z,32.95
2023-05-24T20:44:32.805Z,33.23
2023-05-24T20:47:03.755Z,33.39
2023-05-24T20:49:36.440Z,33.38
2023-05-24T20:52:07.853Z,33.43
2023-05-24T20:54:38.742Z,33.47
2023-05-24T20:57:09.585Z,33.59
2023-05-24T20:59:40.484Z,33.88
2023-05-24T21:02:11.209Z,33.85
2023-05-24T21:04:42.044Z,34.00
2023-05-24T21:07:12.931Z,34.05
2023-05-24T21:09:43.611Z,34.17
2023-05-24T21:12:14.344Z,34.22
2023-05-24T21:14:45.112Z,34.30
2023-05-24T21:17:15.894Z,34.52
2023-05-24T21:19:46.750Z,34.47
2023-05-24T21:22:17.601Z,34.72
2023-05-24T21:24:48.704Z,34.93
2023-05-24T21:27:20.462Z,34.88
2023-05-24T21:29:51.331Z,35.00
2023-05-24T21:32:22.023Z,35.35
2023-05-24T21:34:52.838Z,35.64
2023-05-24T21:37:23.861Z,35.72
2023-05-24T21:39:54.512Z,35.96
2023-05-24T21:42:25.385Z,36.05
2023-05-24T21:44:55.978Z,36.41
2023-05-24T21:47:26.886Z,36.39
2023-05-24T21:49:57.628Z,36.68
2023-05-24T21:52:28.518Z,36.96
2023-05-24T21:54:59.154Z,37.15
2023-05-24T21:57:30.054Z,37.15
2023-05-24T22:00:00.757Z,37.33
2023-05-24T22:02:32.078Z,37.44
2023-05-24T22:05:05.313Z,37.66
2023-05-24T22:07:37.174Z,37.75
2023-05-24T22:10:08.657Z,37.94
2023-05-24T22:12:39.488Z,37.86
2023-05-24T22:15:11.261Z,38.03
2023-05-24T22:17:42.079Z,38.02
2023-05-24T22:20:13.725Z,38.24
2023-05-24T22:22:49.005Z,38.17
2023-05-24T22:25:20.969Z,38.27
2023-05-24T22:27:51.903Z,38.34
2023-05-24T22:30:23.826Z,38.29
2023-05-24T22:32:56.015Z,38.58
2023-05-24T22:35:26.767Z,38.54
2023-05-24T22:37:57.648Z,38.70
2023-05-24T22:40:28.361Z,38.74
2023-05-24T22:42:59.210Z,38.84
2023-05-24T22:45:29.970Z,38.94
2023-05-24T22:48:00.849Z,38.84
2023-05-24T22:50:32.457Z,39.05
2023-05-24T22:53:03.021Z,38.83
2023-05-24T22:55:33.690Z,38.80
2023-05-24T22:58:04.473Z,38.80
2023-05-24T23:00:35.229Z,38.89
2023-05-24T23:03:07.799Z,38.91
2023-05-24T23:05:41.166Z,38.85
2023-05-24T23:08:13.662Z,38.75
2023-05-24T23:10:45.815Z,38.66
2023-05-24T23:13:18.948Z,38.78
2023-05-24T23:15:49.715Z,38.82
2023-05-24T23:18:22.517Z,38.77
2023-05-24T23:20:55.066Z,38.82
2023-05-24T23:23:25.888Z,38.88
2023-05-24T23:25:56.748Z,38.85
2023-05-24T23:28:27.699Z,38.91
2023-05-24T23:30:58.587Z,38.97
2023-05-24T23:33:29.377Z,38.99
2023-05-24T23:35:59.982Z,39.08
2023-05-24T23:38:31.018Z,39.25
2023-05-24T23:41:01.831Z,39.26
2023-05-24T23:43:32.569Z,39.22
2023-05-24T23:46:03.177Z,39.30
2023-05-24T23:48:33.901Z,39.41
2023-05-24T23:51:05.001Z,39.47
2023-05-24T23:53:35.992Z,39.54
2023-05-24T23:56:07.236Z,39.64
2023-05-24T23:58:37.966Z,39.67
